Time;durP1;ratioP1;P1;durP2;ratioP2;P2;SDS_P1;SDS_P2;PMS_P1;PMS_P2;Temp;Humidity;BMP_temperature;BMP_pressure;BME280_temperature;BME280_humidity;BME280_pressure;Samples;Min_cycle;Max_cycle;Signal;HPM_P1;HPM_P2
2022/07/21 00:01:13;;;;;;;14.43;4.85;;;;;;;22.18;nan;100596.75;5010230;28;20125;-69
2022/07/21 00:03:39;;;;;;;16.52;4.53;;;;;;;22.12;nan;100576.47;5012104;28;20057;-69
2022/07/21 00:06:04;;;;;;;17.13;4.32;;;;;;;;;;5011636;28;20049;-70
2022/07/21 00:08:30;;;;;;;20.13;4.45;;;;;;;22.06;nan;100544.38;5011082;28;20088;-68
2022/07/21 00:10:55;;;;;;;15.13;4.20;;;;;;;22.07;nan;100604.19;5009794;28;20034;-68
2022/07/21 00:13:20;;;;;;;15.32;4.43;;;;;;;;;;5011428;28;20468;-68
2022/07/21 00:15:46;;;;;;;15.83;5.80;;;;;;;21.98;nan;100585.31;4994431;28;20178;-68
2022/07/21 00:18:12;;;;;;;12.13;4.20;;;;;;;21.93;nan;100549.75;5010973;28;20279;-68
2022/07/21 00:20:38;;;;;;;18.13;4.68;;;;;;;21.83;nan;100575.66;5009927;28;20086;-69
2022/07/21 00:23:03;;;;;;;13.07;4.30;;;;;;;21.72;nan;100584.97;5010186;28;20133;-68
2022/07/21 00:25:29;;;;;;;12.65;4.63;;;;;;;21.64;nan;100577.59;5010141;28;20034;-67
2022/07/21 00:27:54;;;;;;;15.45;4.80;;;;;;;21.61;nan;100586.22;5009434;28;20488;-69
2022/07/21 00:30:20;;;;;;;17.83;4.22;;;;;;;21.54;nan;100655.50;5006391;28;20041;-69
2022/07/21 00:32:46;;;;;;;18.98;4.80;;;;;;;;;;5010546;28;20065;-68
2022/07/21 00:35:12;;;;;;;17.30;4.23;;;;;;;21.40;nan;100585.78;5010016;28;20540;-68
2022/07/21 00:37:38;;;;;;;20.13;4.25;;;;;;;21.35;nan;100586.63;5009614;28;20275;-68
2022/07/21 00:40:04;;;;;;;10.85;4.30;;;;;;;;;;5009642;28;20113;-68
2022/07/21 00:42:31;;;;;;;18.17;4.50;;;;;;;21.28;nan;100586.19;5009495;28;20128;-68
2022/07/21 00:44:58;;;;;;;12.90;3.83;;;;;;;21.25;nan;100600.19;5007041;28;20104;-69
2022/07/21 00:47:28;;;;;;;7.72;3.20;;;;;;;21.18;nan;100581.78;5010478;28;20034;-67
2022/07/21 00:49:54;;;;;;;10.60;3.70;;;;;;;21.16;nan;100585.84;5009519;28;20031;-68
2022/07/21 00:52:20;;;;;;;7.32;3.40;;;;;;;21.09;nan;100586.22;5010534;28;20034;-68
2022/07/21 00:54:47;;;;;;;10.07;3.22;;;;;;;21.03;nan;100582.03;5010111;28;20511;-68
2022/07/21 00:57:13;;;;;;;11.05;3.60;;;;;;;21.06;nan;100575.31;5005574;28;20392;-69
2022/07/21 00:59:40;;;;;;;10.43;3.00;;;;;;;21.03;nan;100582.81;5012046;28;20113;-71
2022/07/21 01:02:06;;;;;;;16.33;2.90;;;;;;;20.94;nan;100570.38;5007625;28;20124;-68
2022/07/21 01:04:32;;;;;;;8.32;2.97;;;;;;;20.99;nan;100589.03;5010921;28;20033;-67
2022/07/21 01:07:00;;;;;;;9.10;3.08;;;;;;;20.95;nan;100607.59;5010889;28;20088;-70
2022/07/21 01:09:26;;;;;;;11.57;2.83;;;;;;;20.95;nan;100586.16;5008009;28;20069;-68
2022/07/21 01:11:52;;;;;;;11.63;3.00;;;;;;;20.91;nan;100582.47;5009247;28;20057;-69
2022/07/21 01:14:17;;;;;;;11.15;2.80;;;;;;;;;;5009168;28;20709;-68
2022/07/21 01:16:43;;;;;;;7.28;3.00;;;;;;;20.74;nan;100606.25;5008026;28;20492;-68
2022/07/21 01:19:08;;;;;;;6.80;3.10;;;;;;;20.65;nan;100533.84;5008835;28;20030;-67
2022/07/21 01:21:37;;;;;;;7.40;2.80;;;;;;;20.62;nan;100597.84;5008762;28;20042;-67
2022/07/21 01:24:03;;;;;;;10.50;3.17;;;;;;;20.53;nan;100587.75;5009207;28;20120;-68
2022/07/21 01:26:30;;;;;;;7.80;2.97;;;;;;;20.45;nan;100598.28;5011408;28;20113;-70
2022/07/21 01:28:56;;;;;;;10.30;2.95;;;;;;;;;;5011917;28;20045;-68
2022/07/21 01:31:22;;;;;;;12.40;2.72;;;;;;;20.29;nan;100589.66;5011154;28;20038;-68
2022/07/21 01:33:48;;;;;;;8.88;2.97;;;;;;;20.21;nan;100603.63;5010769;28;20512;-67
2022/07/21 01:36:14;;;;;;;7.15;2.63;;;;;;;20.08;nan;100543.63;5011364;28;20068;-67
2022/07/21 01:41:29;;;;;;;11.07;3.17;;;;;;;19.98;nan;100654.13;5010493;28;20551;-67
2022/07/21 01:44:00;;;;;;;6.00;2.88;;;;;;;19.90;nan;100594.06;5011865;28;20042;-66
2022/07/21 01:46:26;;;;;;;12.45;2.75;;;;;;;19.76;nan;100633.22;5020891;28;20060;-68
2022/07/21 01:48:52;;;;;;;7.05;3.33;;;;;;;19.74;nan;100588.06;5006498;28;20065;-67
2022/07/21 01:51:17;;;;;;;10.40;3.20;;;;;;;;;;5010188;28;20437;-68
2022/07/21 01:53:43;;;;;;;7.23;2.77;;;;;;;19.60;nan;100591.66;5012081;28;20030;-68
2022/07/21 01:56:08;;;;;;;6.88;3.10;;;;;;;19.55;nan;100579.91;5010951;28;20294;-68
2022/07/21 01:58:34;;;;;;;9.18;3.33;;;;;;;19.57;nan;100592.22;5012767;28;20144;-67
2022/07/21 02:00:59;;;;;;;5.07;2.90;;;;;;;19.54;nan;100548.94;5015379;28;20117;-70
2022/07/21 02:03:25;;;;;;;10.25;3.10;;;;;;;19.51;nan;100591.44;5015605;28;20037;-68
2022/07/21 02:05:50;;;;;;;6.68;2.95;;;;;;;;;;5013116;28;20117;-68
2022/07/21 02:08:15;;;;;;;10.75;3.20;;;;;;;;;;5015009;28;20030;-67
2022/07/21 02:10:41;;;;;;;10.00;3.20;;;;;;;19.26;nan;100581.75;5014041;28;21337;-68
2022/07/21 02:13:06;;;;;;;9.70;3.08;;;;;;;;;;5015584;28;20350;-67
2022/07/21 02:15:32;;;;;;;5.47;2.92;;;;;;;19.18;nan;100609.84;5012114;28;20044;-68
2022/07/21 02:17:58;;;;;;;7.07;3.10;;;;;;;19.07;nan;100608.31;5015264;28;20061;-67
2022/07/21 02:20:24;;;;;;;7.22;3.15;;;;;;;18.98;nan;100580.59;5010712;28;20048;-68
2022/07/21 02:22:51;;;;;;;10.50;3.00;;;;;;;18.94;nan;100600.91;5008806;28;20053;-67
2022/07/21 02:25:16;;;;;;;10.32;3.20;;;;;;;18.82;nan;100636.75;5013945;28;20042;-76
2022/07/21 02:27:42;;;;;;;12.63;3.15;;;;;;;;;;5013564;28;20034;-75
2022/07/21 02:30:08;;;;;;;9.30;3.10;;;;;;;18.76;nan;100579.13;5011023;28;20925;-74
2022/07/21 02:32:33;;;;;;;6.53;2.78;;;;;;;18.70;nan;100631.69;5013325;28;20095;-76
2022/07/21 02:34:59;;;;;;;9.88;3.08;;;;;;;;;;5014009;28;20079;-75
2022/07/21 02:37:24;;;;;;;8.67;3.33;;;;;;;;;;5012159;28;20033;-75
2022/07/21 02:39:49;;;;;;;9.30;3.40;;;;;;;;;;5013656;28;20286;-74
2022/07/21 02:42:14;;;;;;;7.55;3.15;;;;;;;18.65;nan;100585.56;5021323;28;20356;-75
2022/07/21 02:44:40;;;;;;;8.77;3.05;;;;;;;18.63;nan;100582.38;5015199;28;20562;-76
2022/07/21 02:47:05;;;;;;;5.60;2.83;;;;;;;18.57;nan;100578.91;5013819;28;20549;-75
2022/07/21 02:49:31;;;;;;;8.90;3.10;;;;;;;18.58;nan;100633.06;5015239;28;20033;-75
2022/07/21 02:51:56;;;;;;;6.55;3.55;;;;;;;18.57;nan;100583.47;5015470;28;20504;-75
2022/07/21 02:54:22;;;;;;;12.00;3.50;;;;;;;18.53;nan;100588.53;5009744;28;20053;-75
2022/07/21 02:56:47;;;;;;;11.65;3.58;;;;;;;18.54;nan;100592.81;5014471;28;20034;-75
2022/07/21 02:59:13;;;;;;;11.93;3.10;;;;;;;18.47;nan;100614.44;5014189;28;20071;-75
2022/07/21 03:01:38;;;;;;;6.32;3.20;;;;;;;;;;5010010;28;20033;-76
2022/07/21 03:04:03;;;;;;;8.60;3.40;;;;;;;18.32;nan;100614.50;5010350;28;20164;-74
2022/07/21 03:06:29;;;;;;;9.50;4.22;;;;;;;18.25;nan;100590.78;5011622;28;20259;-76
2022/07/21 03:08:54;;;;;;;9.57;3.50;;;;;;;18.18;nan;100592.94;5014019;28;20492;-75
2022/07/21 03:11:19;;;;;;;8.30;3.30;;;;;;;;;;5012015;28;20492;-77
2022/07/21 03:13:45;;;;;;;8.87;3.20;;;;;;;18.10;nan;100590.00;5013336;28;20034;-75
2022/07/21 03:16:10;;;;;;;6.35;3.47;;;;;;;;;;5014903;28;20388;-76
2022/07/21 03:18:36;;;;;;;7.35;3.35;;;;;;;17.95;nan;100593.50;5009704;28;20034;-76
2022/07/21 03:21:01;;;;;;;7.15;3.55;;;;;;;17.90;nan;100602.31;5009818;28;20026;-76
2022/07/21 03:23:26;;;;;;;10.85;3.80;;;;;;;17.92;nan;100592.19;5008943;28;20046;-76
2022/07/21 03:25:52;;;;;;;17.05;3.83;;;;;;;17.89;nan;100598.06;5013772;28;20103;-76
2022/07/21 03:28:18;;;;;;;8.63;3.60;;;;;;;17.87;nan;100608.19;5011827;28;20454;-76
2022/07/21 03:30:43;;;;;;;6.53;3.20;;;;;;;;;;5013561;28;20105;-75
2022/07/21 03:33:08;;;;;;;13.00;4.10;;;;;;;;;;5012343;28;20513;-76
2022/07/21 03:35:35;;;;;;;8.87;3.70;;;;;;;17.93;nan;100588.44;5014538;28;20271;-76
2022/07/21 03:38:02;;;;;;;7.70;3.42;;;;;;;17.95;nan;100596.16;5014059;28;20270;-75
2022/07/21 03:40:30;;;;;;;12.15;3.70;;;;;;;17.91;nan;100584.44;5011923;28;20018;-74
2022/07/21 03:42:58;;;;;;;18.20;4.53;;;;;;;17.92;nan;100605.50;5013006;28;20129;-73
2022/07/21 03:45:25;;;;;;;15.45;3.90;;;;;;;17.92;nan;100588.72;5009959;28;20038;-74
2022/07/21 03:47:51;;;;;;;9.35;3.67;;;;;;;18.00;nan;100596.16;5007221;28;20030;-74
2022/07/21 03:50:17;;;;;;;12.00;3.90;;;;;;;18.01;nan;100624.41;5010665;28;20041;-76
2022/07/21 03:52:43;;;;;;;8.98;3.63;;;;;;;;;;5006334;28;20503;-74
2022/07/21 03:55:09;;;;;;;8.85;3.30;;;;;;;;;;5011163;28;20037;-74
2022/07/21 03:57:38;;;;;;;11.10;3.53;;;;;;;18.12;nan;100595.88;5012094;28;20030;-75
2022/07/21 04:00:07;;;;;;;14.25;4.45;;;;;;;;;;5013547;28;20104;-74
2022/07/21 04:02:32;;;;;;;10.38;3.97;;;;;;;18.31;nan;100598.75;5009149;28;20758;-77
2022/07/21 04:04:57;;;;;;;11.25;4.40;;;;;;;18.40;nan;100602.47;5010900;28;20069;-75
2022/07/21 04:07:23;;;;;;;11.38;4.70;;;;;;;18.47;nan;100585.09;5006983;28;20065;-75
2022/07/21 04:09:48;;;;;;;13.50;4.57;;;;;;;;;;5012974;28;20030;-75
2022/07/21 04:12:13;;;;;;;22.07;4.50;;;;;;;;;;5004231;28;20037;-73
2022/07/21 04:14:39;;;;;;;12.07;4.03;;;;;;;;;;5012224;28;20284;-74
2022/07/21 04:17:04;;;;;;;12.60;3.57;;;;;;;18.77;nan;100591.41;5009418;28;20641;-74
2022/07/21 04:19:29;;;;;;;16.60;4.05;;;;;;;18.82;nan;100644.75;5005658;28;20308;-75
2022/07/21 04:21:55;;;;;;;14.45;3.70;;;;;;;18.92;nan;100594.00;4998422;28;20539;-76
2022/07/21 04:24:20;;;;;;;19.00;4.18;;;;;;;18.93;nan;100592.09;5003218;28;20085;-75
2022/07/21 04:26:46;;;;;;;11.27;3.97;;;;;;;19.01;nan;100588.88;5007276;28;20088;-75
2022/07/21 04:29:11;;;;;;;17.25;4.05;;;;;;;19.13;nan;100592.00;5016550;28;20046;-74
2022/07/21 04:31:37;;;;;;;18.50;4.95;;;;;;;19.19;nan;100613.31;5006796;28;20026;-75
2022/07/21 04:34:02;;;;;;;22.98;4.35;;;;;;;19.27;nan;100629.53;5009255;28;20713;-75
2022/07/21 04:36:28;;;;;;;34.55;5.65;;;;;;;19.28;nan;100609.78;5001844;28;20064;-76
2022/07/21 04:38:54;;;;;;;20.92;4.53;;;;;;;19.29;nan;100610.56;5010659;28;20507;-76
2022/07/21 04:41:19;;;;;;;19.08;4.03;;;;;;;19.27;nan;100672.25;5006520;28;20072;-75
2022/07/21 04:43:44;;;;;;;17.73;4.38;;;;;;;;;;5007841;28;20046;-75
2022/07/21 04:46:10;;;;;;;18.47;4.07;;;;;;;19.40;nan;100613.97;5007700;28;20231;-75
2022/07/21 04:48:35;;;;;;;10.77;3.67;;;;;;;19.44;nan;100626.50;5006643;28;20036;-75
2022/07/21 04:51:00;;;;;;;17.58;4.18;;;;;;;19.51;nan;100594.09;5010625;28;20488;-74
2022/07/21 04:53:26;;;;;;;9.82;4.03;;;;;;;19.55;nan;100576.44;5008615;28;20096;-76
2022/07/21 04:55:51;;;;;;;15.10;4.13;;;;;;;19.71;nan;100591.31;5011154;28;20026;-75
2022/07/21 04:58:17;;;;;;;22.42;6.70;;;;;;;19.80;nan;100601.38;5006626;28;20092;-75
2022/07/21 05:00:42;;;;;;;12.48;5.00;;;;;;;19.92;nan;100613.31;5013637;28;20112;-70
2022/07/21 05:03:08;;;;;;;13.65;4.97;;;;;;;19.98;nan;100620.16;5009662;28;20069;-71
2022/07/21 05:05:33;;;;;;;20.52;4.63;;;;;;;20.07;nan;100601.66;5004673;28;20034;-69
2022/07/21 05:07:58;;;;;;;21.65;5.63;;;;;;;;;;5007854;28;20041;-69
2022/07/21 05:10:24;;;;;;;11.73;3.93;;;;;;;20.26;nan;100686.50;5008867;28;20072;-71
2022/07/21 05:12:49;;;;;;;17.35;4.00;;;;;;;20.35;nan;100617.91;5007751;28;20484;-70
2022/07/21 05:15:15;;;;;;;9.82;3.55;;;;;;;20.38;nan;100607.47;5006585;28;20044;-70
2022/07/21 05:17:41;;;;;;;14.93;3.80;;;;;;;20.45;nan;100567.00;5010984;28;20034;-71
2022/07/21 05:20:09;;;;;;;17.83;4.30;;;;;;;20.55;nan;100679.25;5008601;28;20048;-71
2022/07/21 05:22:35;;;;;;;16.95;3.80;;;;;;;20.58;nan;100659.94;5008262;28;20029;-70
2022/07/21 05:25:00;;;;;;;12.23;4.60;;;;;;;20.70;nan;100626.66;5009469;28;20084;-71
2022/07/21 05:27:25;;;;;;;13.65;4.40;;;;;;;20.77;nan;100616.38;5006370;28;20112;-69
2022/07/21 05:29:51;;;;;;;16.98;4.25;;;;;;;20.88;nan;100628.56;5009230;28;20038;-69
2022/07/21 05:32:16;;;;;;;11.60;3.50;;;;;;;20.94;nan;100555.09;5008389;28;20111;-69
2022/07/21 05:34:41;;;;;;;15.35;3.90;;;;;;;21.06;nan;100618.94;5002879;28;20044;-70
2022/07/21 05:37:07;;;;;;;14.25;3.42;;;;;;;21.16;nan;100631.38;5007538;28;20518;-71
2022/07/21 05:39:33;;;;;;;13.40;3.33;;;;;;;21.26;nan;100628.53;5010388;28;20165;-71
2022/07/21 05:41:58;;;;;;;9.68;3.50;;;;;;;21.39;nan;100624.34;5007892;28;20121;-71
2022/07/21 05:44:24;;;;;;;7.90;3.42;;;;;;;21.40;nan;100605.31;5007300;28;20391;-73
2022/07/21 05:46:49;;;;;;;13.60;3.35;;;;;;;21.50;nan;100600.88;5004827;28;20042;-71
2022/07/21 05:49:14;;;;;;;15.68;3.60;;;;;;;21.61;nan;100619.19;4999886;28;20033;-72
2022/07/21 05:51:40;;;;;;;13.05;3.70;;;;;;;21.72;nan;100619.03;5001972;28;20526;-71
2022/07/21 05:54:05;;;;;;;16.35;3.53;;;;;;;21.83;nan;100674.84;5017133;28;20042;-72
2022/07/21 05:56:30;;;;;;;12.27;3.47;;;;;;;;;;5001980;28;20034;-72
2022/07/21 05:58:56;;;;;;;8.00;3.30;;;;;;;22.02;nan;100650.66;5011208;28;20056;-72
2022/07/21 06:01:21;;;;;;;10.55;3.25;;;;;;;;;;5002311;28;20331;-72
2022/07/21 06:03:51;;;;;;;15.30;3.90;;;;;;;22.29;nan;100590.09;5006620;28;20034;-74
2022/07/21 06:06:18;;;;;;;14.00;3.38;;;;;;;22.42;nan;100610.00;5005912;28;20046;-74
2022/07/21 06:08:46;;;;;;;15.80;3.47;;;;;;;22.64;nan;100615.41;5006449;28;20034;-73
2022/07/21 06:11:15;;;;;;;22.65;4.03;;;;;;;22.68;nan;100675.47;5008803;28;20042;-75
2022/07/21 06:13:41;;;;;;;22.88;3.70;;;;;;;22.79;nan;100618.88;5005275;28;20034;-74
2022/07/21 06:16:07;;;;;;;18.10;3.40;;;;;;;22.89;nan;100607.91;5007077;28;20081;-75
2022/07/21 06:18:32;;;;;;;12.52;3.50;;;;;;;;;;5009431;28;20558;-75
2022/07/21 06:20:58;;;;;;;12.90;3.65;;;;;;;;;;5010925;28;20037;-75
2022/07/21 06:23:23;;;;;;;12.10;4.05;;;;;;;23.35;nan;100636.47;5010375;28;20050;-75
2022/07/21 06:25:50;;;;;;;9.35;3.30;;;;;;;23.47;nan;100638.59;5010318;28;20036;-75
2022/07/21 06:28:16;;;;;;;8.38;3.42;;;;;;;23.67;nan;100683.00;5008344;28;20029;-74
2022/07/21 06:30:41;;;;;;;11.75;3.55;;;;;;;23.75;nan;100597.06;5009583;28;20042;-74
2022/07/21 06:33:07;;;;;;;6.75;3.13;;;;;;;;;;5005913;28;20033;-74
2022/07/21 06:35:33;;;;;;;8.27;3.35;;;;;;;24.01;nan;100644.00;5008048;28;20030;-75
2022/07/21 06:37:58;;;;;;;9.07;3.42;;;;;;;24.12;nan;100594.22;5004366;28;20801;-75
2022/07/21 06:40:24;;;;;;;6.65;3.22;;;;;;;24.21;nan;100673.06;5009210;28;20484;-72
2022/07/21 06:42:49;;;;;;;6.55;3.00;;;;;;;24.30;nan;100587.78;5009278;28;20033;-71
2022/07/21 06:45:15;;;;;;;12.73;3.75;;;;;;;24.52;nan;100608.44;5010384;28;20041;-71
2022/07/21 06:47:40;;;;;;;11.43;2.97;;;;;;;24.62;nan;100620.81;5013403;28;20049;-69
2022/07/21 06:50:07;;;;;;;9.55;3.05;;;;;;;24.77;nan;100614.19;5009331;28;20085;-68
2022/07/21 06:52:34;;;;;;;5.93;3.35;;;;;;;24.94;nan;100624.19;5012164;28;20149;-69
2022/07/21 06:54:59;;;;;;;10.25;3.30;;;;;;;;;;5011742;28;20060;-70
2022/07/21 06:57:25;;;;;;;13.10;3.10;;;;;;;25.41;nan;100638.63;5011078;28;20555;-70
2022/07/21 06:59:50;;;;;;;9.93;3.40;;;;;;;25.60;nan;100621.31;5010065;28;20049;-71
2022/07/21 07:02:16;;;;;;;12.60;3.40;;;;;;;25.80;nan;100600.94;5011395;28;20065;-71
2022/07/21 07:04:43;;;;;;;16.55;3.45;;;;;;;25.95;nan;100597.75;5009728;28;20033;-73
2022/07/21 07:07:09;;;;;;;5.35;3.05;;;;;;;25.96;nan;100585.06;5002481;28;20034;-68
2022/07/21 07:09:34;;;;;;;13.40;3.40;;;;;;;26.05;nan;100612.78;5000450;28;20038;-70
2022/07/21 07:12:03;;;;;;;13.23;2.97;;;;;;;26.13;nan;100619.28;5012748;28;20083;-68
2022/07/21 07:14:32;;;;;;;;;;;;;;;26.24;nan;100636.66;5013236;28;20080;-67
2022/07/21 07:16:58;;;;;;;7.95;3.25;;;;;;;26.27;nan;100619.84;5013028;28;19917;-72
2022/07/21 07:19:24;;;;;;;5.80;2.92;;;;;;;26.46;nan;100622.91;5005392;28;20026;-73
2022/07/21 07:21:49;;;;;;;9.20;3.05;;;;;;;26.50;nan;100628.44;5013370;28;20036;-73
2022/07/21 07:24:15;;;;;;;9.00;3.25;;;;;;;26.71;nan;100606.88;5012312;28;20061;-69
2022/07/21 07:26:40;;;;;;;9.18;3.33;;;;;;;;;;5012881;28;20034;-73
2022/07/21 07:29:06;;;;;;;7.40;3.80;;;;;;;26.83;nan;100623.16;5014438;28;20030;-75
2022/07/21 07:31:32;;;;;;;5.10;3.25;;;;;;;26.95;nan;100604.31;5013936;28;20101;-72
2022/07/21 07:33:57;;;;;;;9.05;3.25;;;;;;;27.08;nan;100583.56;5011362;28;20046;-70
2022/07/21 07:36:24;;;;;;;13.85;3.50;;;;;;;27.24;nan;100610.00;5009053;28;20108;-70
2022/07/21 07:38:51;;;;;;;6.93;3.22;;;;;;;27.32;nan;100636.16;5012088;28;20040;-72
2022/07/21 07:41:17;;;;;;;9.50;3.65;;;;;;;27.47;nan;100589.56;5010162;28;20030;-74
2022/07/21 07:43:43;;;;;;;18.33;3.38;;;;;;;27.56;nan;100600.31;5014179;28;20037;-67
2022/07/21 07:46:10;;;;;;;13.30;3.58;;;;;;;;;;5011722;28;20030;-74
2022/07/21 07:48:36;;;;;;;10.90;3.22;;;;;;;;;;5010783;28;20034;-71
2022/07/21 07:51:02;;;;;;;5.55;3.42;;;;;;;27.93;nan;100557.06;5013424;28;20396;-69
2022/07/21 07:53:27;;;;;;;7.68;3.33;;;;;;;28.09;nan;100622.94;5011495;28;20072;-72
2022/07/21 07:55:53;;;;;;;13.57;3.08;;;;;;;28.20;nan;100607.81;5012589;28;20033;-73
2022/07/21 07:58:18;;;;;;;6.30;3.30;;;;;;;28.43;nan;100604.66;5011695;28;20029;-72
2022/07/21 08:00:43;;;;;;;9.35;3.40;;;;;;;28.52;nan;100591.81;5016934;28;20029;-72
2022/07/21 08:03:09;;;;;;;6.15;3.28;;;;;;;28.62;nan;100577.78;5007227;28;20034;-72
2022/07/21 08:05:34;;;;;;;7.45;3.60;;;;;;;28.70;nan;100607.78;4989694;28;20041;-70
2022/07/21 08:08:00;;;;;;;9.32;3.33;;;;;;;28.88;nan;100546.75;5013368;28;20046;-74
2022/07/21 08:10:25;;;;;;;5.45;3.22;;;;;;;29.00;nan;100632.66;5012510;28;20041;-72
2022/07/21 08:12:50;;;;;;;5.18;2.85;;;;;;;29.08;nan;100598.44;5011992;28;20030;-70
2022/07/21 08:15:16;;;;;;;6.55;3.17;;;;;;;29.20;nan;100563.91;5010401;28;20507;-72
2022/07/21 08:17:41;;;;;;;8.07;3.00;;;;;;;29.32;nan;100619.25;5012376;28;20165;-72
2022/07/21 08:20:07;;;;;;;6.93;3.25;;;;;;;29.40;nan;100575.69;5011796;28;20615;-71
2022/07/21 08:22:33;;;;;;;7.07;2.88;;;;;;;29.54;nan;100585.31;5012747;28;20030;-72
2022/07/21 08:24:58;;;;;;;5.25;2.22;;;;;;;29.61;nan;100575.41;5012390;28;20476;-69
2022/07/21 08:27:24;;;;;;;2.72;1.70;;;;;;;29.83;nan;100605.84;5010683;28;20651;-71
2022/07/21 08:29:50;;;;;;;5.65;2.47;;;;;;;30.03;nan;100601.28;5010298;28;20133;-72
2022/07/21 08:32:17;;;;;;;2.92;2.38;;;;;;;30.15;nan;100576.72;5004267;28;20551;-72
2022/07/21 08:34:44;;;;;;;5.80;2.10;;;;;;;30.19;nan;100536.84;5011691;28;20029;-72
2022/07/21 08:37:09;;;;;;;4.05;2.05;;;;;;;30.23;nan;100575.75;5010265;28;20044;-70
2022/07/21 08:39:35;;;;;;;4.60;2.20;;;;;;;30.32;nan;100559.28;5007809;28;20485;-72
2022/07/21 08:42:01;;;;;;;5.78;2.20;;;;;;;30.49;nan;100563.53;5011491;28;20065;-71
2022/07/21 08:44:27;;;;;;;4.38;2.10;;;;;;;30.66;nan;100546.78;5009325;28;20048;-70
2022/07/21 08:46:52;;;;;;;3.88;2.30;;;;;;;30.89;nan;100555.06;5008180;28;20029;-70
2022/07/21 08:49:22;;;;;;;3.17;1.73;;;;;;;31.00;nan;100576.22;5007213;28;20512;-69
2022/07/21 08:51:48;;;;;;;3.63;2.20;;;;;;;31.22;nan;100591.78;5009761;28;20034;-70
2022/07/21 08:54:14;;;;;;;6.07;2.80;;;;;;;31.36;nan;100564.03;5012830;28;20121;-69
2022/07/21 08:56:39;;;;;;;5.93;2.30;;;;;;;31.51;nan;100560.47;5010315;28;20121;-70
2022/07/21 08:59:05;;;;;;;4.22;2.20;;;;;;;31.66;nan;100555.25;5011005;28;20052;-69
2022/07/21 09:01:31;;;;;;;4.50;2.30;;;;;;;31.75;nan;100539.44;5011709;28;20026;-69
2022/07/21 09:04:20;;;;;;;5.07;2.15;;;;;;;31.84;nan;100561.75;5009580;28;20412;-70
2022/07/21 09:06:52;;;;;;;5.68;2.03;;;;;;;31.88;nan;100559.09;5008762;28;20128;-69
2022/07/21 09:09:20;;;;;;;7.93;1.90;;;;;;;31.94;nan;100561.16;5010867;28;20025;-70
2022/07/21 09:11:45;;;;;;;3.30;1.98;;;;;;;31.95;nan;100560.00;5010802;28;20128;-69
2022/07/21 09:14:18;;;;;;;5.43;1.88;;;;;;;32.10;nan;100593.69;5009203;28;20125;-69
2022/07/21 09:16:49;;;;;;;5.15;2.10;;;;;;;32.11;nan;100540.78;5004187;28;20030;-69
2022/07/21 09:19:35;;;;;;;6.45;2.30;;;;;;;32.20;nan;100557.66;5010144;28;20052;-70
2022/07/21 09:22:03;;;;;;;5.50;1.98;;;;;;;32.34;nan;100575.34;5002906;28;20139;-69
2022/07/21 09:24:40;;;;;;;7.68;2.25;;;;;;;32.38;nan;100576.97;5009211;28;20048;-69
2022/07/21 09:27:07;;;;;;;6.22;2.10;;;;;;;32.37;nan;100533.72;5005818;28;20044;-70
2022/07/21 09:29:46;;;;;;;2.65;1.90;;;;;;;32.46;nan;100530.72;5009123;28;20069;-70
2022/07/21 09:32:20;;;;;;;3.97;2.10;;;;;;;32.47;nan;100568.53;5008378;28;20041;-69
2022/07/21 09:34:51;;;;;;;8.45;2.53;;;;;;;32.54;nan;100532.41;5011042;28;20038;-69
2022/07/21 09:37:19;;;;;;;5.57;2.53;;;;;;;32.67;nan;100607.34;5008491;28;20041;-67
2022/07/21 09:39:50;;;;;;;6.93;2.30;;;;;;;32.72;nan;100544.31;5008272;28;20041;-70
2022/07/21 09:42:44;;;;;;;4.82;2.60;;;;;;;32.77;nan;100540.47;5008551;28;20459;-67
2022/07/21 09:45:14;;;;;;;6.75;2.70;;;;;;;32.79;nan;100541.66;5006935;28;20061;-68
2022/07/21 09:47:41;;;;;;;4.80;2.42;;;;;;;32.82;nan;100581.81;5010260;28;20041;-68
2022/07/21 09:50:09;;;;;;;5.82;2.47;;;;;;;32.96;nan;100553.91;5006647;28;20392;-69
2022/07/21 09:52:35;;;;;;;9.63;2.50;;;;;;;32.98;nan;100534.47;5005936;28;20038;-67
2022/07/21 09:55:04;;;;;;;7.13;2.88;;;;;;;33.13;nan;100547.09;5006819;28;20068;-68
2022/07/21 09:57:30;;;;;;;4.80;3.15;;;;;;;33.05;nan;100499.88;5010287;28;20030;-69
2022/07/21 09:59:56;;;;;;;7.85;2.53;;;;;;;33.15;nan;100542.06;5011298;28;20034;-68
2022/07/21 10:02:32;;;;;;;11.23;2.85;;;;;;;33.22;nan;100525.75;4998891;28;20034;-69
2022/07/21 10:05:07;;;;;;;7.28;2.75;;;;;;;33.24;nan;100544.47;5008393;28;20557;-68
2022/07/21 10:07:36;;;;;;;3.45;2.63;;;;;;;33.26;nan;100544.91;5003760;28;20481;-70
2022/07/21 10:10:03;;;;;;;2.92;2.53;;;;;;;33.28;nan;100541.78;5020372;28;20484;-71
2022/07/21 10:12:28;;;;;;;5.53;2.10;;;;;;;33.37;nan;100534.06;5007738;28;20042;-71
2022/07/21 10:14:54;;;;;;;9.73;2.50;;;;;;;33.37;nan;100520.41;5008939;28;20100;-72
2022/07/21 10:17:22;;;;;;;6.20;2.53;;;;;;;33.43;nan;100552.44;5006786;28;20033;-71
2022/07/21 10:20:06;;;;;;;8.13;2.58;;;;;;;33.45;nan;100516.56;5004656;28;20145;-70
2022/07/21 10:22:51;;;;;;;3.65;2.00;;;;;;;33.55;nan;100510.44;5010563;28;20034;-71
2022/07/21 10:25:17;;;;;;;7.82;2.60;;;;;;;33.55;nan;100510.44;5010825;28;20045;-70
2022/07/21 10:28:11;;;;;;;3.30;2.28;;;;;;;33.55;nan;100523.28;5014135;28;20117;-69
2022/07/21 10:30:48;;;;;;;10.70;3.03;;;;;;;33.59;nan;100516.69;5008278;28;20030;-69
2022/07/21 10:33:15;;;;;;;7.38;2.10;;;;;;;33.59;nan;100546.75;5024983;28;20045;-69
2022/07/21 10:35:43;;;;;;;9.43;2.58;;;;;;;33.73;nan;100534.38;5013687;28;20030;-69
2022/07/21 10:38:31;;;;;;;4.88;2.30;;;;;;;33.80;nan;100561.72;5009272;28;20107;-68
2022/07/21 10:41:03;;;;;;;8.52;2.53;;;;;;;33.80;nan;100509.84;5009031;28;20064;-68
2022/07/21 10:43:28;;;;;;;3.60;2.33;;;;;;;33.84;nan;100502.44;5012647;28;20120;-67
2022/07/21 10:45:54;;;;;;;8.17;2.67;;;;;;;33.86;nan;100497.41;5009394;28;20578;-69
2022/07/21 10:48:39;;;;;;;8.60;2.55;;;;;;;34.00;nan;100521.25;5013837;28;20333;-69
2022/07/21 10:51:15;;;;;;;7.50;2.30;;;;;;;33.90;nan;100489.97;5009479;28;20037;-68
2022/07/21 10:53:41;;;;;;;5.50;2.70;;;;;;;33.89;nan;100508.31;5014665;28;20037;-69
2022/07/21 10:56:07;;;;;;;5.90;2.33;;;;;;;33.94;nan;100582.91;5013436;28;20465;-69
2022/07/21 10:58:42;;;;;;;9.82;2.08;;;;;;;33.95;nan;100499.75;5015023;28;20365;-70
2022/07/21 11:01:14;;;;;;;6.63;2.30;;;;;;;33.95;nan;100502.50;5010361;28;20658;-69
2022/07/21 11:03:41;;;;;;;16.83;2.95;;;;;;;33.97;nan;100481.81;5011961;28;20099;-68
2022/07/21 11:06:09;;;;;;;4.38;2.28;;;;;;;34.03;nan;100510.38;5010718;28;20088;-68
2022/07/21 11:08:35;;;;;;;8.10;2.90;;;;;;;33.99;nan;100492.38;5011833;28;20045;-69
2022/07/21 11:11:27;;;;;;;11.95;2.55;;;;;;;34.09;nan;100500.66;5008599;28;20295;-69
2022/07/21 11:14:09;;;;;;;11.43;2.53;;;;;;;34.08;nan;100499.09;5013059;28;20045;-70
2022/07/21 11:16:52;;;;;;;4.53;2.70;;;;;;;34.13;nan;100508.88;5009234;28;20182;-69
2022/07/21 11:19:39;;;;;;;5.75;2.03;;;;;;;34.22;nan;100451.13;5004343;28;20038;-70
2022/07/21 11:22:22;;;;;;;6.03;2.35;;;;;;;34.23;nan;100480.03;5007371;28;20373;-70
2022/07/21 11:24:48;;;;;;;7.63;2.70;;;;;;;34.26;nan;100485.50;5007230;28;20077;-69
2022/07/21 11:27:16;;;;;;;7.60;2.72;;;;;;;34.43;nan;100499.63;5009197;28;20033;-69
2022/07/21 11:29:44;;;;;;;7.15;2.55;;;;;;;34.46;nan;100494.19;5009219;28;20041;-68
2022/07/21 11:32:11;;;;;;;9.95;2.35;;;;;;;34.43;nan;100444.94;5010748;28;20044;-70
2022/07/21 11:34:43;;;;;;;8.07;2.90;;;;;;;34.51;nan;100504.75;5009612;28;20484;-69
2022/07/21 11:37:10;;;;;;;10.02;2.63;;;;;;;34.54;nan;100462.16;5003924;28;20381;-69
2022/07/21 11:39:36;;;;;;;6.00;2.60;;;;;;;34.57;nan;100466.84;5011088;28;20037;-69
2022/07/21 11:42:11;;;;;;;10.32;2.65;;;;;;;34.60;nan;100462.59;5014280;28;20034;-68
2022/07/21 11:44:37;;;;;;;8.45;2.88;;;;;;;34.60;nan;100481.72;5007558;28;20029;-68
2022/07/21 11:47:05;;;;;;;5.38;2.35;;;;;;;34.69;nan;100463.78;5009366;28;20042;-69
2022/07/21 11:49:31;;;;;;;10.60;2.63;;;;;;;34.62;nan;100462.97;5013492;28;20033;-69
2022/07/21 11:52:03;;;;;;;9.27;2.65;;;;;;;34.59;nan;100459.03;5011689;28;20150;-68
2022/07/21 11:54:33;;;;;;;10.68;3.20;;;;;;;34.65;nan;100464.97;5002174;28;20034;-70
2022/07/21 11:57:00;;;;;;;5.95;2.80;;;;;;;34.71;nan;100445.03;5010860;28;20416;-71
2022/07/21 11:59:26;;;;;;;11.55;2.80;;;;;;;34.77;nan;100452.84;5011311;28;20038;-70